Terminal Aerodrome Forecast
Issued by NWS Shreveport, LA

Home | Current Version | Previous Version | Text Only | Print | Product List | Glossary On
Versions: 1 2 3 4 5 6 7 8 9 10 11 12 13 14
000
FTUS44 KSHV 292300
TAFLFK
TAF
KLFK 292320Z 3000/3024 14005KT P6SM VCTS SCT050CB
     FM300400 13005KT P6SM BKN150 BKN250
     FM300900 VRB03KT 6SM BR SCT008 BKN015
      TEMPO 3009/3013 1SM -RA BR OVC007
     FM301400 VRB03KT P6SM BKN008
     FM301700 19005KT P6SM VCTS BKN030CB=

USA.gov is the U.S. government's official web portal to all federal, state and local government web resources and services.